New Pittsburgh, Ohio
Current Conditions -  °F | °C
As of 2:52 AM on Sunday 21 Dec 2014 (Local Time) from KMFD Reporting Station
Overcast Overcast  
Wind Chill: 28°   Ceiling: 2300
Heat Index: 28°   Visibility: 8mi
Dew Point: 23°   Wind: 3mph
Humidity: 81%   Direction: 220°SW
Pressure: 30.27"   Gusts: NA
Location:  40.9918°N, 82.6827°W
Report Text: KMFD 210752Z 22003KT 8SM OVC023 M02/M05 A3027 RMK AO2 SLP266 T10221050
Loading
Personal Weather Stations






























Interactive Weather Map New forecast layout! Learn more

10-Day Weather Forecast

Advertisements
Track Severe Weather on mobile